createdAt,value
2022-09-18T00:01:37.686Z,100400.44
2022-09-18T00:04:09.061Z,100400.66
2022-09-18T00:06:39.256Z,100400.50
2022-09-18T00:09:10.139Z,100397.25
2022-09-18T00:11:41.237Z,100395.63
2022-09-18T00:14:11.056Z,100402.69
2022-09-18T00:16:39.926Z,100396.50
2022-09-18T00:19:08.928Z,100404.31
2022-09-18T00:21:37.564Z,100397.41
2022-09-18T00:24:06.598Z,100399.84
2022-09-18T00:26:36.529Z,100394.66
2022-09-18T00:29:06.377Z,100395.44
2022-09-18T00:31:37.516Z,100394.44
2022-09-18T00:34:07.705Z,100398.03
2022-09-18T00:36:36.799Z,100394.94
2022-09-18T00:39:05.661Z,100391.44
2022-09-18T00:41:38.593Z,100387.63
2022-09-18T00:44:38.777Z,100388.09
2022-09-18T00:47:21.542Z,100391.84
2022-09-18T00:49:54.279Z,100391.84
2022-09-18T00:52:24.914Z,100391.09
2022-09-18T00:54:55.535Z,100386.06
2022-09-18T00:57:28.713Z,100383.97
2022-09-18T01:00:11.268Z,100386.94
2022-09-18T01:02:40.833Z,100386.53
2022-09-18T01:05:10.340Z,100393.69
2022-09-18T01:07:53.377Z,100389.44
2022-09-18T01:10:34.427Z,100389.44
2022-09-18T01:13:12.257Z,100389.44
2022-09-18T01:15:45.931Z,100395.63
2022-09-18T01:18:24.439Z,100388.19
2022-09-18T01:21:05.797Z,100385.59
2022-09-18T01:24:06.484Z,100392.34
2022-09-18T01:26:46.274Z,100396.00
2022-09-18T01:29:24.240Z,100399.75
2022-09-18T01:31:58.588Z,100396.19
2022-09-18T01:34:34.020Z,100393.50
2022-09-18T01:37:07.413Z,100396.84
2022-09-18T01:39:42.277Z,100396.81
2022-09-18T01:42:13.522Z,100394.41
2022-09-18T01:44:45.489Z,100387.63
2022-09-18T01:47:15.994Z,100395.94
2022-09-18T01:49:48.091Z,100387.94
2022-09-18T01:52:22.318Z,100391.66
2022-09-18T01:54:54.826Z,100387.09
2022-09-18T01:57:26.792Z,100382.03
2022-09-18T02:00:02.902Z,100383.69
2022-09-18T02:02:47.432Z,100385.53
2022-09-18T02:05:21.543Z,100383.50
2022-09-18T02:08:00.927Z,100379.34
2022-09-18T02:10:32.483Z,100395.25
2022-09-18T02:13:04.381Z,100380.28
2022-09-18T02:15:41.191Z,100377.28
2022-09-18T02:18:23.394Z,100380.59
2022-09-18T02:20:53.010Z,100368.84
2022-09-18T02:23:21.455Z,100374.78
2022-09-18T02:25:53.881Z,100365.59
2022-09-18T02:28:26.024Z,100362.16
2022-09-18T02:30:59.011Z,100369.41
2022-09-18T02:33:29.057Z,100379.69
2022-09-18T02:36:10.534Z,100370.56
2022-09-18T02:38:50.091Z,100373.41
2022-09-18T02:41:29.496Z,100377.91
2022-09-18T02:44:02.381Z,100370.81
2022-09-18T02:46:44.761Z,100365.97
2022-09-18T02:49:20.129Z,100361.03
2022-09-18T02:51:55.382Z,100367.75
2022-09-18T02:54:31.741Z,100364.22
2022-09-18T02:57:07.677Z,100364.41
2022-09-18T02:59:43.247Z,100373.88
2022-09-18T03:02:16.942Z,100380.13
2022-09-18T03:04:45.742Z,100377.22
2022-09-18T03:07:22.746Z,100370.25
2022-09-18T03:09:52.288Z,100357.34
2022-09-18T03:12:20.189Z,100360.19
2022-09-18T03:14:49.589Z,100361.03
2022-09-18T03:17:19.615Z,100362.59
2022-09-18T03:19:48.373Z,100364.91
2022-09-18T03:22:16.488Z,100359.16
2022-09-18T03:24:44.454Z,100355.78
2022-09-18T03:27:12.345Z,100349.63
2022-09-18T03:29:40.338Z,100348.38
2022-09-18T03:32:08.222Z,100350.44
2022-09-18T03:34:44.030Z,100353.94
2022-09-18T03:37:12.713Z,100360.91
2022-09-18T03:39:40.994Z,100354.63
2022-09-18T03:42:15.316Z,100355.84
2022-09-18T03:44:43.394Z,100352.94
2022-09-18T03:47:22.289Z,100360.69
2022-09-18T03:49:51.909Z,100353.03
2022-09-18T03:52:21.389Z,100347.31
2022-09-18T03:55:01.580Z,100354.38
2022-09-18T03:57:48.281Z,100353.88
2022-09-18T04:00:35.087Z,100357.75
2022-09-18T04:03:09.582Z,100354.78
2022-09-18T04:05:41.963Z,100357.78
2022-09-18T04:08:28.870Z,100364.00
2022-09-18T04:11:11.497Z,100355.53
2022-09-18T04:13:39.866Z,100351.34
2022-09-18T04:16:10.701Z,100364.34
2022-09-18T04:18:39.342Z,100355.94
2022-09-18T04:21:09.753Z,100364.34
2022-09-18T04:23:38.787Z,100361.91
2022-09-18T04:26:10.393Z,100366.69
2022-09-18T04:28:46.404Z,100369.16
2022-09-18T04:31:15.529Z,100367.16
2022-09-18T04:33:43.561Z,100371.25
2022-09-18T04:36:13.431Z,100371.34
2022-09-18T04:38:43.130Z,100365.69
2022-09-18T04:41:13.571Z,100361.75
2022-09-18T04:43:47.436Z,100361.69
2022-09-18T04:46:17.245Z,100366.75
2022-09-18T04:48:48.557Z,100366.91
2022-09-18T04:51:19.478Z,100372.66
2022-09-18T04:53:49.809Z,100368.06
2022-09-18T04:56:18.497Z,100372.81
2022-09-18T04:58:50.834Z,100369.72
2022-09-18T05:01:19.841Z,100368.66
2022-09-18T05:03:48.686Z,100377.03
2022-09-18T05:06:27.093Z,100376.19
2022-09-18T05:08:59.638Z,100377.94
2022-09-18T05:11:28.487Z,100376.63
2022-09-18T05:13:58.231Z,100380.28
2022-09-18T05:16:29.693Z,100386.75
2022-09-18T05:19:33.085Z,100387.84
2022-09-18T05:22:08.385Z,100397.50
2022-09-18T05:24:41.300Z,100396.66
2022-09-18T05:27:09.209Z,100394.84
2022-09-18T05:29:38.040Z,100391.25
2022-09-18T05:32:23.021Z,100391.03
2022-09-18T05:34:53.284Z,100393.56
2022-09-18T05:37:22.915Z,100388.09
2022-09-18T05:39:54.981Z,100391.59
2022-09-18T05:42:23.565Z,100389.84
2022-09-18T05:44:51.487Z,100390.41
2022-09-18T05:47:26.020Z,100391.41
2022-09-18T05:49:55.629Z,100391.75
2022-09-18T05:52:27.187Z,100393.59
2022-09-18T05:54:55.266Z,100393.59
2022-09-18T05:57:23.314Z,100393.44
2022-09-18T05:59:51.587Z,100396.00
2022-09-18T06:02:19.562Z,100389.63
2022-09-18T06:05:12.063Z,100404.84
2022-09-18T06:07:41.663Z,100401.19
2022-09-18T06:10:10.300Z,100407.16
2022-09-18T06:12:38.325Z,100402.97
2022-09-18T06:15:07.940Z,100393.38
2022-09-18T06:17:36.986Z,100396.41
2022-09-18T06:20:08.843Z,100389.25
2022-09-18T06:22:38.025Z,100389.19
2022-09-18T06:25:11.351Z,100393.41
2022-09-18T06:27:40.804Z,100397.97
2022-09-18T06:30:10.565Z,100396.50
2022-09-18T06:32:39.122Z,100396.28
2022-09-18T06:35:08.670Z,100400.69
2022-09-18T06:37:36.864Z,100398.03
2022-09-18T06:40:13.563Z,100395.06
2022-09-18T06:43:11.393Z,100399.53
2022-09-18T06:46:04.419Z,100400.59
2022-09-18T06:48:39.311Z,100390.69
2022-09-18T06:51:07.741Z,100395.84
2022-09-18T06:53:50.837Z,100400.97
2022-09-18T06:56:21.145Z,100395.06
2022-09-18T06:58:49.051Z,100399.38
2022-09-18T07:01:20.793Z,100405.91
2022-09-18T07:03:51.986Z,100404.31
2022-09-18T07:06:27.549Z,100410.28
2022-09-18T07:08:57.191Z,100406.50
2022-09-18T07:11:42.616Z,100407.84
2022-09-18T07:14:10.648Z,100402.19
2022-09-18T07:16:39.765Z,100405.72
2022-09-18T07:19:08.295Z,100409.94
2022-09-18T07:21:38.332Z,100416.78
2022-09-18T07:24:07.390Z,100413.47
2022-09-18T07:26:35.988Z,100415.13
2022-09-18T07:29:09.996Z,100417.16
2022-09-18T07:31:39.134Z,100423.69
2022-09-18T07:34:10.526Z,100410.75
2022-09-18T07:36:38.727Z,100407.88
2022-09-18T07:39:06.945Z,100415.13
2022-09-18T07:41:55.080Z,100416.03
2022-09-18T07:44:26.172Z,100422.16
2022-09-18T07:46:55.302Z,100422.00
2022-09-18T07:49:24.277Z,100417.03
2022-09-18T07:51:53.187Z,100409.78
2022-09-18T07:54:21.663Z,100413.25
2022-09-18T07:57:12.646Z,100414.56
2022-09-18T07:59:56.088Z,100418.59
2022-09-18T08:02:26.699Z,100417.69
2022-09-18T08:04:55.451Z,100410.38
2022-09-18T08:07:37.081Z,100417.13
2022-09-18T08:10:31.649Z,100412.16
2022-09-18T08:13:20.493Z,100421.94
2022-09-18T08:16:22.795Z,100413.00
2022-09-18T08:19:29.633Z,100417.34
2022-09-18T08:22:32.987Z,100415.84
2022-09-18T08:25:01.276Z,100412.97
2022-09-18T08:27:29.855Z,100412.38
2022-09-18T08:29:58.222Z,100423.44
2022-09-18T08:32:29.104Z,100415.00
2022-09-18T08:34:58.446Z,100412.41
2022-09-18T08:37:26.526Z,100399.41
2022-09-18T08:40:15.036Z,100414.66
2022-09-18T08:43:03.746Z,100401.78
2022-09-18T08:45:44.040Z,100412.06
2022-09-18T08:48:20.734Z,100418.44
2022-09-18T08:50:58.891Z,100421.31
2022-09-18T08:53:33.961Z,100411.03
2022-09-18T08:56:26.799Z,100396.38
2022-09-18T08:59:35.873Z,100416.09
2022-09-18T09:02:24.294Z,100415.28
2022-09-18T09:04:59.605Z,100420.25
2022-09-18T09:07:56.944Z,100409.47
2022-09-18T09:10:38.281Z,100408.75
2022-09-18T09:13:24.680Z,100406.47
2022-09-18T09:15:57.761Z,100409.50
2022-09-18T09:18:33.085Z,100409.41
2022-09-18T09:21:13.907Z,100409.75
2022-09-18T09:23:51.879Z,100405.78
2022-09-18T09:26:45.893Z,100415.38
2022-09-18T09:29:43.476Z,100413.69
2022-09-18T09:32:44.089Z,100418.06
2022-09-18T09:35:29.630Z,100415.72
2022-09-18T09:38:38.769Z,100418.81
2022-09-18T09:41:15.082Z,100409.38
2022-09-18T09:43:49.402Z,100418.53
2022-09-18T09:46:31.085Z,100416.31
2022-09-18T09:49:08.212Z,100422.19
2022-09-18T09:51:44.457Z,100416.13
2022-09-18T09:54:14.961Z,100409.28
2022-09-18T09:56:49.713Z,100404.81
2022-09-18T09:59:27.561Z,100404.91
2022-09-18T10:02:37.592Z,100399.75
2022-09-18T10:05:18.177Z,100408.81
2022-09-18T10:07:51.699Z,100406.00
2022-09-18T10:10:30.715Z,100414.59
2022-09-18T10:13:02.935Z,100404.94
2022-09-18T10:15:38.533Z,100399.69
2022-09-18T10:18:16.539Z,100401.84
2022-09-18T10:20:48.572Z,100409.22
2022-09-18T10:23:34.041Z,100403.38
2022-09-18T10:26:06.120Z,100410.91
2022-09-18T10:28:35.033Z,100405.78
2022-09-18T10:31:07.221Z,100402.59
2022-09-18T10:33:41.469Z,100407.59
2022-09-18T10:36:25.978Z,100409.16
2022-09-18T10:38:56.130Z,100396.72
2022-09-18T10:41:35.748Z,100395.81
2022-09-18T10:44:20.118Z,100396.19
2022-09-18T10:46:57.642Z,100394.25
2022-09-18T10:49:31.883Z,100391.91
2022-09-18T10:52:25.283Z,100399.28
2022-09-18T10:55:10.363Z,100401.63
2022-09-18T10:57:44.999Z,100402.69
2022-09-18T11:00:37.294Z,100394.09
2022-09-18T11:03:20.881Z,100394.97
2022-09-18T11:05:53.232Z,100385.13
2022-09-18T11:08:27.707Z,100387.47
2022-09-18T11:11:04.139Z,100387.13
2022-09-18T11:13:43.055Z,100389.63
2022-09-18T11:16:26.953Z,100389.91
2022-09-18T11:19:07.984Z,100381.41
2022-09-18T11:21:46.371Z,100380.47
2022-09-18T11:24:35.018Z,100372.81
2022-09-18T11:27:21.185Z,100363.09
2022-09-18T11:29:51.801Z,100363.84
2022-09-18T11:32:25.152Z,100366.25
2022-09-18T11:34:57.751Z,100361.59
2022-09-18T11:37:34.442Z,100362.06
2022-09-18T11:40:07.588Z,100358.00
2022-09-18T11:42:43.400Z,100350.16
2022-09-18T11:45:30.882Z,100352.31
2022-09-18T11:48:06.801Z,100354.16
2022-09-18T11:50:38.226Z,100356.97
2022-09-18T11:53:15.961Z,100337.72
2022-09-18T11:55:49.903Z,100339.31
2022-09-18T11:58:25.901Z,100342.28
2022-09-18T12:01:04.979Z,100334.88
2022-09-18T12:03:43.431Z,100336.34
2022-09-18T12:06:18.744Z,100332.09
2022-09-18T12:08:54.102Z,100329.25
2022-09-18T12:11:39.781Z,100332.63
2022-09-18T12:14:16.953Z,100326.50
2022-09-18T12:17:01.168Z,100327.69
2022-09-18T12:19:37.301Z,100328.34
2022-09-18T12:22:13.838Z,100330.69
2022-09-18T12:24:41.839Z,100325.34
2022-09-18T12:27:27.793Z,100321.31
2022-09-18T12:30:08.428Z,100327.31
2022-09-18T12:33:05.359Z,100321.06
2022-09-18T12:35:46.482Z,100321.06
2022-09-18T12:38:28.460Z,100323.59
2022-09-18T12:41:13.688Z,100314.13
2022-09-18T12:44:07.142Z,100311.97
2022-09-18T12:46:52.785Z,100314.44
2022-09-18T12:49:39.997Z,100312.41
2022-09-18T12:52:18.209Z,100308.66
2022-09-18T12:55:11.741Z,100296.56
2022-09-18T12:57:50.400Z,100300.28
2022-09-18T13:00:19.416Z,100297.06
2022-09-18T13:02:54.215Z,100289.75
2022-09-18T13:05:31.558Z,100289.78
2022-09-18T13:08:08.018Z,100290.06
2022-09-18T13:10:39.782Z,100282.28
2022-09-18T13:13:15.593Z,100289.38
2022-09-18T13:15:49.001Z,100285.19
2022-09-18T13:18:28.605Z,100288.44
2022-09-18T13:21:00.999Z,100288.16
2022-09-18T13:23:34.356Z,100287.03
2022-09-18T13:26:05.243Z,100289.47
2022-09-18T13:28:34.339Z,100273.38
2022-09-18T13:31:28.788Z,100272.25
2022-09-18T13:33:59.292Z,100274.00
2022-09-18T13:36:31.479Z,100269.41
2022-09-18T13:39:02.320Z,100275.84
2022-09-18T13:41:42.510Z,100261.13
2022-09-18T13:44:19.902Z,100265.13
2022-09-18T13:46:49.510Z,100275.75
2022-09-18T13:49:23.510Z,100263.63
2022-09-18T13:51:53.226Z,100266.38
2022-09-18T13:54:28.214Z,100267.53
2022-09-18T13:57:32.802Z,100271.38
2022-09-18T14:00:06.227Z,100265.84
2022-09-18T14:02:41.178Z,100264.91
2022-09-18T14:05:34.106Z,100256.66
2022-09-18T14:08:40.961Z,100254.44
2022-09-18T14:11:15.378Z,100250.03
2022-09-18T14:13:51.356Z,100246.94
2022-09-18T14:16:41.346Z,100241.34
2022-09-18T14:19:28.661Z,100241.72
2022-09-18T14:21:57.830Z,100236.66
2022-09-18T14:24:57.927Z,100248.34
2022-09-18T14:27:39.417Z,100250.63
2022-09-18T14:30:17.469Z,100245.72
2022-09-18T14:32:57.013Z,100256.91
2022-09-18T14:35:33.958Z,100261.13
2022-09-18T14:38:02.550Z,100252.56
2022-09-18T14:40:32.527Z,100249.31
2022-09-18T14:43:02.320Z,100245.28
2022-09-18T14:45:31.960Z,100245.00
2022-09-18T14:48:00.448Z,100238.84
2022-09-18T14:50:32.046Z,100239.41
2022-09-18T14:53:02.078Z,100233.88
2022-09-18T14:55:36.634Z,100228.56
2022-09-18T14:58:08.262Z,100219.41
2022-09-18T15:00:39.719Z,100223.22
2022-09-18T15:03:15.470Z,100225.00
2022-09-18T15:05:43.768Z,100220.50
2022-09-18T15:08:18.855Z,100219.50
2022-09-18T15:10:50.601Z,100219.78
2022-09-18T15:13:21.816Z,100217.72
2022-09-18T15:15:59.454Z,100215.19
2022-09-18T15:18:29.338Z,100219.66
2022-09-18T15:21:01.759Z,100212.84
2022-09-18T15:23:33.940Z,100213.31
2022-09-18T15:26:05.789Z,100216.50
2022-09-18T15:28:37.736Z,100215.09
2022-09-18T15:31:09.427Z,100213.59
2022-09-18T15:33:40.268Z,100204.06
2022-09-18T15:36:08.624Z,100210.78
2022-09-18T15:38:42.598Z,100205.38
2022-09-18T15:41:33.969Z,100208.00
2022-09-18T15:44:03.761Z,100206.00
2022-09-18T15:46:33.321Z,100185.16
2022-09-18T15:49:04.052Z,100192.94
2022-09-18T15:51:33.967Z,100205.75
2022-09-18T15:54:07.558Z,100205.53
2022-09-18T15:56:36.629Z,100207.88
2022-09-18T15:59:08.692Z,100203.34
2022-09-18T16:01:40.863Z,100201.31
2022-09-18T16:04:24.940Z,100199.16
2022-09-18T16:06:57.458Z,100197.47
2022-09-18T16:09:40.168Z,100202.69
2022-09-18T16:12:28.200Z,100205.66
2022-09-18T16:15:16.725Z,100203.94
2022-09-18T16:18:05.038Z,100206.75
2022-09-18T16:20:36.769Z,100198.72
2022-09-18T16:23:28.315Z,100203.28
2022-09-18T16:26:10.518Z,100196.03
2022-09-18T16:28:42.878Z,100194.84
2022-09-18T16:31:14.229Z,100195.97
2022-09-18T16:33:51.733Z,100193.81
2022-09-18T16:36:31.860Z,100189.72
2022-09-18T16:39:01.490Z,100197.28
2022-09-18T16:41:29.932Z,100186.44
2022-09-18T16:43:57.955Z,100184.53
2022-09-18T16:46:31.605Z,100186.84
2022-09-18T16:48:59.615Z,100171.16
2022-09-18T16:51:27.660Z,100173.84
2022-09-18T16:53:55.516Z,100168.03
2022-09-18T16:56:27.347Z,100168.34
2022-09-18T16:58:57.632Z,100168.56
2022-09-18T17:01:28.032Z,100174.22
2022-09-18T17:03:56.033Z,100167.84
2022-09-18T17:06:24.443Z,100182.09
2022-09-18T17:08:52.813Z,100178.03
2022-09-18T17:11:20.660Z,100178.91
2022-09-18T17:13:48.675Z,100176.34
2022-09-18T17:16:35.329Z,100169.59
2022-09-18T17:19:16.252Z,100179.97
2022-09-18T17:21:44.789Z,100176.28
2022-09-18T17:24:13.051Z,100176.16
2022-09-18T17:26:42.585Z,100167.47
2022-09-18T17:29:12.187Z,100167.06
2022-09-18T17:31:40.303Z,100163.94
2022-09-18T17:34:09.959Z,100172.44
2022-09-18T17:36:41.030Z,100173.47
2022-09-18T17:39:09.179Z,100175.78
2022-09-18T17:41:37.276Z,100169.91
2022-09-18T17:44:06.052Z,100163.38
2022-09-18T17:46:34.971Z,100162.66
2022-09-18T17:49:04.261Z,100157.25
2022-09-18T17:51:35.940Z,100164.09
2022-09-18T17:54:05.907Z,100158.16
2022-09-18T17:56:34.917Z,100162.50
2022-09-18T17:59:05.395Z,100166.72
2022-09-18T18:01:37.024Z,100172.16
2022-09-18T18:04:05.975Z,100159.88
2022-09-18T18:06:36.855Z,100160.94
2022-09-18T18:09:06.761Z,100157.88
2022-09-18T18:11:35.601Z,100173.81
2022-09-18T18:14:04.287Z,100181.59
2022-09-18T18:16:34.319Z,100177.81
2022-09-18T18:19:04.785Z,100186.75
2022-09-18T18:21:36.060Z,100176.31
2022-09-18T18:24:09.028Z,100179.78
2022-09-18T18:26:38.028Z,100188.59
2022-09-18T18:29:08.131Z,100191.88
2022-09-18T18:31:37.867Z,100185.19
2022-09-18T18:34:05.990Z,100196.53
2022-09-18T18:36:35.808Z,100199.63
2022-09-18T18:39:05.850Z,100196.38
2022-09-18T18:41:34.077Z,100192.91
2022-09-18T18:44:05.702Z,100183.16
2022-09-18T18:46:39.491Z,100185.63
2022-09-18T18:49:10.131Z,100184.91
2022-09-18T18:51:42.883Z,100184.34
2022-09-18T18:54:12.277Z,100187.53
2022-09-18T18:56:41.380Z,100181.50
2022-09-18T18:59:12.635Z,100173.56
2022-09-18T19:01:42.763Z,100186.69
2022-09-18T19:04:12.851Z,100181.63
2022-09-18T19:06:44.592Z,100185.75
2022-09-18T19:09:18.096Z,100183.25
2022-09-18T19:11:49.267Z,100188.47
2022-09-18T19:14:19.420Z,100186.78
2022-09-18T19:16:49.207Z,100186.34
2022-09-18T19:19:19.090Z,100190.97
2022-09-18T19:21:49.874Z,100182.16
2022-09-18T19:24:19.479Z,100180.75
2022-09-18T19:26:48.407Z,100187.91
2022-09-18T19:29:19.697Z,100189.44
2022-09-18T19:31:48.520Z,100196.09
2022-09-18T19:34:19.462Z,100196.53
2022-09-18T19:36:50.322Z,100198.47
2022-09-18T19:39:20.824Z,100202.06
2022-09-18T19:41:53.400Z,100207.47
2022-09-18T19:44:26.833Z,100208.25
2022-09-18T19:46:57.078Z,100206.28
2022-09-18T19:49:31.772Z,100213.16
2022-09-18T19:52:02.420Z,100222.22
2022-09-18T19:54:31.198Z,100226.22
2022-09-18T19:56:59.438Z,100230.34
2022-09-18T19:59:27.242Z,100222.69
2022-09-18T20:01:56.648Z,100227.06
2022-09-18T20:04:24.698Z,100225.31
2022-09-18T20:06:52.846Z,100244.31
2022-09-18T20:09:22.905Z,100244.53
2022-09-18T20:11:50.810Z,100253.59
2022-09-18T20:14:19.206Z,100250.22
2022-09-18T20:16:47.041Z,100256.22
2022-09-18T20:19:15.829Z,100252.97
2022-09-18T20:21:43.903Z,100249.97
2022-09-18T20:24:12.150Z,100259.25
2022-09-18T20:26:42.805Z,100248.75
2022-09-18T20:29:16.143Z,100253.13
2022-09-18T20:31:46.104Z,100266.53
2022-09-18T20:34:15.630Z,100269.06
2022-09-18T20:36:43.557Z,100303.28
2022-09-18T20:39:11.454Z,100336.91
2022-09-18T20:41:40.752Z,100329.94
2022-09-18T20:44:09.923Z,100329.72
2022-09-18T20:46:39.519Z,100324.06
2022-09-18T20:49:08.109Z,100333.22
2022-09-18T20:51:36.441Z,100337.84
2022-09-18T20:54:07.343Z,100345.03
2022-09-18T20:56:41.270Z,100341.34
2022-09-18T20:59:15.968Z,100338.41
2022-09-18T21:01:44.403Z,100344.97
2022-09-18T21:04:17.299Z,100342.13
2022-09-18T21:06:46.852Z,100350.59
2022-09-18T21:09:15.647Z,100348.59
2022-09-18T21:11:46.211Z,100341.72
2022-09-18T21:14:17.746Z,100346.09
2022-09-18T21:16:45.634Z,100338.53
2022-09-18T21:19:15.116Z,100336.69
2022-09-18T21:21:43.188Z,100336.84
2022-09-18T21:24:12.296Z,100328.09
2022-09-18T21:26:42.286Z,100337.19
2022-09-18T21:29:17.550Z,100331.22
2022-09-18T21:31:48.520Z,100324.91
2022-09-18T21:34:24.170Z,100323.94
2022-09-18T21:36:54.263Z,100314.75
2022-09-18T21:39:22.389Z,100315.47
2022-09-18T21:41:53.179Z,100309.69
2022-09-18T21:44:27.307Z,100318.22
2022-09-18T21:46:58.749Z,100333.84
2022-09-18T21:49:27.675Z,100334.66
2022-09-18T21:51:56.505Z,100328.34
2022-09-18T21:54:25.308Z,100333.81
2022-09-18T21:56:53.826Z,100343.22
2022-09-18T21:59:23.303Z,100346.81
2022-09-18T22:01:52.870Z,100346.84
2022-09-18T22:04:23.110Z,100353.31
2022-09-18T22:06:51.545Z,100355.38
2022-09-18T22:09:22.134Z,100364.28
2022-09-18T22:11:50.837Z,100368.06
2022-09-18T22:14:22.655Z,100370.66
2022-09-18T22:16:53.142Z,100383.94
2022-09-18T22:19:22.615Z,100377.84
2022-09-18T22:21:51.753Z,100378.69
2022-09-18T22:24:22.313Z,100375.41
2022-09-18T22:26:53.520Z,100379.34
2022-09-18T22:29:23.956Z,100381.13
2022-09-18T22:31:52.566Z,100378.91
2022-09-18T22:34:23.958Z,100384.13
2022-09-18T22:36:52.322Z,100390.31
2022-09-18T22:39:22.096Z,100398.81
2022-09-18T22:41:51.427Z,100400.00
2022-09-18T22:44:21.280Z,100401.91
2022-09-18T22:46:51.926Z,100384.75
2022-09-18T22:49:21.000Z,100396.03
2022-09-18T22:51:51.251Z,100391.19
2022-09-18T22:54:24.700Z,100398.47
2022-09-18T22:56:53.755Z,100402.06
2022-09-18T22:59:23.728Z,100394.13
2022-09-18T23:01:53.775Z,100396.06
2022-09-18T23:04:23.512Z,100387.50
2022-09-18T23:06:53.317Z,100386.47
2022-09-18T23:09:21.867Z,100386.91
2022-09-18T23:11:52.941Z,100387.97
2022-09-18T23:14:23.430Z,100388.84
2022-09-18T23:16:52.274Z,100386.59
2022-09-18T23:19:22.513Z,100390.50
2022-09-18T23:21:53.892Z,100382.88
2022-09-18T23:24:22.589Z,100385.47
2022-09-18T23:26:52.768Z,100385.66
2022-09-18T23:29:22.374Z,100381.47
2022-09-18T23:31:53.273Z,100385.00
2022-09-18T23:34:23.476Z,100383.00
2022-09-18T23:36:54.098Z,100387.06
2022-09-18T23:39:25.040Z,100387.97
2022-09-18T23:41:53.132Z,100383.50
2022-09-18T23:44:23.185Z,100397.59
2022-09-18T23:46:52.452Z,100398.41
2022-09-18T23:49:23.165Z,100395.06
2022-09-18T23:51:54.061Z,100396.47
2022-09-18T23:54:23.843Z,100400.25
2022-09-18T23:56:52.238Z,100394.03
2022-09-18T23:59:22.978Z,100405.84
